This is the latest recevied weather packets stored in our database for station/object SP9MLI-1. If no packets are shown the sender has not sent any weather packets the latest 10 day(s).
| Time | Temp. | Humidity | Pressure | Rain* | Wind** | Luminosity | Snow |
|---|---|---|---|---|---|---|---|
| 1778002692 | 8.89° C | 98% | 1009.6 hPa | 0 mm | - | - | - |
| 1778001792 | 8.89° C | 98% | 1009.6 hPa | 0 mm | - | - | - |
| 1778000895 | 8.89° C | 97% | 1009.6 hPa | 0 mm | - | - | - |
| 1777999993 | 8.89° C | 98% | 1009.6 hPa | 0 mm | - | - | - |
| 1777999155 | 8.89° C | 98% | 1009.6 hPa | 1.78 mm | - | - | - |
| 1777999092 | 8.89° C | 98% | 1009.6 hPa | 1.78 mm | - | - | - |
| 1777998199 | 8.89° C | 98% | 1009.6 hPa | 0 mm | - | - | - |
| 1777996396 | 10.56° C | 94% | 1010.6 hPa | 0 mm | - | - | - |
| 1777995492 | 10.56° C | 94% | 1010.6 hPa | 0 mm | - | - | - |
| 1777994592 | 10.56° C | 94% | 1010.6 hPa | 0 mm | - | - | - |
| 1777993693 | 10.56° C | 94% | 1010.6 hPa | 0 mm | - | - | - |
| 1777992792 | 11.11° C | 91% | 1010.9 hPa | 0 mm | - | - | - |
| 1777991892 | 11.67° C | 86% | 1010.9 hPa | 0 mm | - | - | - |
| 1777990992 | 12.22° C | 84% | 1011.3 hPa | 0 mm | - | - | - |
| 1777989194 | 11.67° C | 84% | 1011.3 hPa | 0 mm | - | - | - |
| 1777988294 | 11.67° C | 85% | 1011.6 hPa | 0 mm | - | - | - |
| 1777987394 | 12.22° C | 84% | 1011.6 hPa | 0 mm | - | - | - |
| 1777986494 | 12.22° C | 85% | 1012 hPa | 0 mm | - | - | - |
| 1777985594 | 12.22° C | 86% | 1012 hPa | 0 mm | - | - | - |
| 1777984694 | 12.22° C | 84% | 1012.3 hPa | 0 mm | - | - | - |
| 1777983794 | 12.22° C | 83% | 1012.3 hPa | 0 mm | - | - | - |
| 1777982893 | 12.22° C | 84% | 1012.3 hPa | 0 mm | - | - | - |
| 1777981995 | 12.78° C | 81% | 1012.3 hPa | 0 mm | - | - | - |
| 1777981150 | 13.89° C | 74% | 1012.3 hPa | 0 mm | - | - | - |
| 1777980490 | 14.44° C | 70% | 1012.6 hPa | 0 mm | - | - | - |
* Rain latest hour (hover to see other rain measurements)
** Current wind speed in m/s (hover to see current wind gust speed)